createdAt,value
2023-01-06T00:01:43.482Z,9.78
2023-01-06T00:06:47.246Z,9.77
2023-01-06T00:11:52.394Z,9.75
2023-01-06T00:16:56.098Z,9.75
2023-01-06T00:21:59.924Z,9.80
2023-01-06T00:27:05.206Z,9.79
2023-01-06T00:32:09.004Z,9.86
2023-01-06T00:37:12.840Z,9.84
2023-01-06T00:42:17.961Z,9.86
2023-01-06T00:47:21.734Z,9.84
2023-01-06T00:52:25.502Z,9.94
2023-01-06T00:57:30.599Z,9.94
2023-01-06T01:02:34.435Z,9.92
2023-01-06T01:07:38.280Z,9.98
2023-01-06T01:12:43.408Z,9.98
2023-01-06T01:17:47.201Z,9.94
2023-01-06T01:22:50.987Z,9.96
2023-01-06T01:27:56.063Z,9.99
2023-01-06T01:32:59.777Z,9.98
2023-01-06T01:38:03.498Z,10.00
2023-01-06T01:43:11.556Z,9.96
2023-01-06T01:48:27.487Z,9.94
2023-01-06T01:53:34.295Z,9.95
2023-01-06T01:58:43.958Z,9.99
2023-01-06T02:03:47.934Z,9.96
2023-01-06T02:08:56.270Z,9.99
2023-01-06T02:14:11.092Z,9.96
2023-01-06T02:19:38.502Z,9.99
2023-01-06T02:25:09.018Z,9.99
2023-01-06T02:30:39.291Z,9.96
2023-01-06T02:35:58.729Z,10.01
2023-01-06T02:41:13.591Z,10.00
2023-01-06T02:46:28.003Z,10.01
2023-01-06T02:51:40.953Z,9.98
2023-01-06T02:56:48.884Z,9.98
2023-01-06T03:01:56.007Z,9.97
2023-01-06T03:07:04.008Z,9.99
2023-01-06T03:12:17.124Z,10.00
2023-01-06T03:17:20.973Z,9.99
2023-01-06T03:22:27.143Z,10.01
2023-01-06T03:27:31.039Z,9.99
2023-01-06T03:32:44.867Z,10.01
2023-01-06T03:37:57.193Z,9.98
2023-01-06T03:43:16.340Z,10.02
2023-01-06T03:48:26.907Z,9.95
2023-01-06T03:53:38.385Z,9.99
2023-01-06T03:58:43.025Z,10.02
2023-01-06T04:03:48.786Z,10.02
2023-01-06T04:08:54.152Z,9.99
2023-01-06T04:13:58.039Z,9.98
2023-01-06T04:19:02.001Z,10.00
2023-01-06T04:24:07.918Z,9.97
2023-01-06T04:29:12.546Z,10.00
2023-01-06T04:34:16.471Z,10.01
2023-01-06T04:39:22.769Z,9.95
2023-01-06T04:44:26.501Z,10.00
2023-01-06T04:49:31.189Z,10.00
2023-01-06T04:54:36.265Z,9.99
2023-01-06T04:59:40.068Z,9.96
2023-01-06T05:04:48.078Z,9.92
2023-01-06T05:09:53.332Z,9.94
2023-01-06T05:14:57.063Z,9.94
2023-01-06T05:20:00.820Z,9.97
2023-01-06T05:25:06.669Z,9.99
2023-01-06T05:30:11.341Z,9.97
2023-01-06T05:35:15.236Z,9.98
2023-01-06T05:40:20.394Z,10.00
2023-01-06T05:45:24.967Z,10.05
2023-01-06T05:50:28.829Z,10.06
2023-01-06T05:55:33.884Z,10.03
2023-01-06T06:00:37.664Z,9.97
2023-01-06T06:05:41.393Z,9.99
2023-01-06T06:10:46.572Z,9.92
2023-01-06T06:15:50.296Z,9.95
2023-01-06T06:20:54.015Z,9.92
2023-01-06T06:25:59.405Z,9.98
2023-01-06T06:31:07.044Z,9.99
2023-01-06T06:36:15.697Z,9.90
2023-01-06T06:41:21.736Z,9.83
2023-01-06T06:46:25.555Z,9.77
2023-01-06T06:51:31.470Z,9.69
2023-01-06T06:56:36.595Z,9.65
2023-01-06T07:01:40.411Z,9.63
2023-01-06T07:06:44.199Z,9.59
2023-01-06T07:11:49.256Z,9.50
2023-01-06T07:16:53.007Z,9.48
2023-01-06T07:21:56.806Z,9.47
2023-01-06T07:27:01.883Z,9.48
2023-01-06T07:32:08.256Z,9.48
2023-01-06T07:37:13.241Z,9.49
2023-01-06T07:42:18.405Z,9.56
2023-01-06T07:47:22.145Z,9.56
2023-01-06T07:52:25.910Z,9.56
2023-01-06T07:57:31.580Z,9.55
2023-01-06T08:02:35.439Z,9.63
2023-01-06T08:07:39.338Z,9.63
2023-01-06T08:12:44.484Z,9.71
2023-01-06T08:17:48.301Z,9.75
2023-01-06T08:22:52.081Z,9.84
2023-01-06T08:27:59.527Z,9.85
2023-01-06T08:33:03.279Z,9.87
2023-01-06T08:38:07.189Z,9.89
2023-01-06T08:43:12.288Z,9.96
2023-01-06T08:48:16.098Z,9.96
2023-01-06T08:53:19.870Z,9.99
2023-01-06T08:58:25.017Z,9.99
2023-01-06T09:03:28.799Z,10.05
2023-01-06T09:08:32.564Z,10.00
2023-01-06T09:13:38.012Z,9.98
2023-01-06T09:18:47.369Z,10.04
2023-01-06T09:23:51.454Z,10.06
2023-01-06T09:28:57.014Z,10.18
2023-01-06T09:34:00.869Z,10.23
2023-01-06T09:39:05.190Z,10.21
2023-01-06T09:44:14.554Z,10.32
2023-01-06T09:49:27.944Z,10.36
2023-01-06T09:54:36.247Z,10.53
2023-01-06T09:59:46.172Z,10.59
2023-01-06T10:04:50.129Z,10.66
2023-01-06T10:10:04.989Z,10.65
2023-01-06T10:15:18.890Z,10.80
2023-01-06T10:20:45.130Z,10.93
2023-01-06T10:25:54.751Z,11.13
2023-01-06T10:31:03.887Z,11.43
2023-01-06T10:36:13.230Z,11.17
2023-01-06T10:41:25.708Z,10.97
2023-01-06T10:46:35.025Z,11.00
2023-01-06T10:51:41.109Z,10.84
2023-01-06T10:56:50.012Z,10.78
2023-01-06T11:01:57.205Z,10.95
2023-01-06T11:07:02.855Z,10.87
2023-01-06T11:12:19.922Z,10.90
2023-01-06T11:17:26.430Z,10.88
2023-01-06T11:22:35.193Z,10.74
2023-01-06T11:27:39.401Z,10.81
2023-01-06T11:32:44.588Z,10.98
2023-01-06T11:37:48.376Z,11.15
2023-01-06T11:42:54.850Z,11.18
2023-01-06T11:48:00.055Z,11.08
2023-01-06T11:53:06.064Z,11.03
2023-01-06T11:58:17.370Z,11.27
2023-01-06T12:03:31.094Z,11.33
2023-01-06T12:08:39.608Z,11.25
2023-01-06T12:14:01.679Z,11.14
2023-01-06T12:19:16.146Z,11.19
2023-01-06T12:24:21.134Z,11.36
2023-01-06T12:29:26.332Z,11.38
2023-01-06T12:34:35.864Z,11.27
2023-01-06T12:39:45.870Z,11.47
2023-01-06T12:44:53.576Z,11.59
2023-01-06T12:50:04.016Z,11.96
2023-01-06T12:55:10.712Z,12.25
2023-01-06T13:00:27.278Z,12.21
2023-01-06T13:05:55.584Z,12.15
2023-01-06T13:11:14.685Z,12.45
2023-01-06T13:16:26.828Z,12.86
2023-01-06T13:21:34.308Z,14.51
2023-01-06T13:26:59.027Z,15.48
2023-01-06T13:32:21.599Z,16.71
2023-01-06T13:37:35.800Z,17.44
2023-01-06T13:42:45.290Z,16.51
2023-01-06T13:47:51.001Z,16.27
2023-01-06T13:52:57.201Z,15.53
2023-01-06T13:58:36.682Z,14.71
2023-01-06T14:03:42.138Z,13.55
2023-01-06T14:08:52.321Z,13.25
2023-01-06T14:13:58.360Z,12.66
2023-01-06T14:19:07.515Z,12.77
2023-01-06T14:24:23.896Z,12.75
2023-01-06T14:30:06.232Z,12.71
2023-01-06T14:35:13.408Z,12.35
2023-01-06T14:40:22.442Z,12.42
2023-01-06T14:45:28.851Z,12.27
2023-01-06T14:50:46.636Z,12.03
2023-01-06T14:55:52.441Z,12.03
2023-01-06T15:00:56.242Z,12.14
2023-01-06T15:06:18.690Z,11.86
2023-01-06T15:11:29.620Z,11.73
2023-01-06T15:16:36.814Z,11.79
2023-01-06T15:21:41.672Z,11.65
2023-01-06T15:26:46.837Z,11.75
2023-01-06T15:31:53.427Z,11.76
2023-01-06T15:36:57.673Z,11.72
2023-01-06T15:42:08.066Z,11.59
2023-01-06T15:47:24.995Z,11.52
2023-01-06T15:52:32.513Z,11.34
2023-01-06T15:57:40.275Z,11.24
2023-01-06T16:02:48.141Z,11.09
2023-01-06T16:07:51.858Z,11.10
2023-01-06T16:13:21.217Z,10.99
2023-01-06T16:18:31.265Z,11.05
2023-01-06T16:23:35.806Z,11.06
2023-01-06T16:28:47.348Z,10.95
2023-01-06T16:33:51.362Z,10.98
2023-01-06T16:38:55.104Z,11.02
2023-01-06T16:44:00.206Z,11.02
2023-01-06T16:49:11.544Z,10.99
2023-01-06T16:54:18.567Z,11.07
2023-01-06T16:59:23.748Z,10.97
2023-01-06T17:04:28.855Z,11.04
2023-01-06T17:09:33.153Z,11.03
2023-01-06T17:14:38.574Z,11.04
2023-01-06T17:19:43.109Z,11.08
2023-01-06T17:24:46.865Z,11.01
2023-01-06T17:29:53.004Z,11.05
2023-01-06T17:34:58.731Z,11.06
2023-01-06T17:40:04.202Z,11.00
2023-01-06T17:45:15.257Z,10.89
2023-01-06T17:50:29.135Z,10.93
2023-01-06T17:55:45.493Z,10.93
2023-01-06T18:00:50.586Z,10.93
2023-01-06T18:06:20.322Z,10.91
2023-01-06T18:11:29.583Z,10.84
2023-01-06T18:16:36.007Z,10.84
2023-01-06T18:21:40.889Z,10.85
2023-01-06T18:26:51.663Z,10.85
2023-01-06T18:31:57.595Z,10.79
2023-01-06T18:37:02.547Z,10.76
2023-01-06T18:42:23.036Z,10.64
2023-01-06T18:47:30.050Z,10.58
2023-01-06T18:52:45.210Z,10.61
2023-01-06T18:57:58.046Z,10.64
2023-01-06T19:03:15.375Z,10.68
2023-01-06T19:08:27.665Z,10.63
2023-01-06T19:13:32.231Z,10.69
2023-01-06T19:18:38.896Z,10.68
2023-01-06T19:23:42.775Z,10.60
2023-01-06T19:28:56.259Z,10.60
2023-01-06T19:34:03.938Z,10.59
2023-01-06T19:39:33.981Z,10.60
2023-01-06T19:44:38.929Z,10.56
2023-01-06T19:49:46.528Z,10.59
2023-01-06T19:54:50.307Z,10.62
2023-01-06T19:59:55.017Z,10.56
2023-01-06T20:05:00.291Z,10.56
2023-01-06T20:10:04.173Z,10.54
2023-01-06T20:15:09.026Z,10.55
2023-01-06T20:20:14.200Z,10.55
2023-01-06T20:25:18.242Z,10.52
2023-01-06T20:30:21.966Z,10.61
2023-01-06T20:35:27.080Z,10.58
2023-01-06T20:40:30.872Z,10.63
2023-01-06T20:45:35.265Z,10.59
2023-01-06T20:50:42.055Z,10.56
2023-01-06T20:55:45.938Z,10.56
2023-01-06T21:00:50.145Z,10.57
2023-01-06T21:05:55.309Z,10.55
2023-01-06T21:10:59.091Z,10.47
2023-01-06T21:16:02.808Z,10.41
2023-01-06T21:21:07.994Z,10.36
2023-01-06T21:26:11.795Z,10.35
2023-01-06T21:31:15.643Z,10.37
2023-01-06T21:36:20.867Z,10.40
2023-01-06T21:41:42.257Z,10.40
2023-01-06T21:46:46.162Z,10.40
2023-01-06T21:51:52.172Z,10.32
2023-01-06T21:56:56.177Z,10.33
2023-01-06T22:02:00.295Z,10.29
2023-01-06T22:07:09.175Z,10.23
2023-01-06T22:12:15.512Z,10.26
2023-01-06T22:17:20.629Z,10.21
2023-01-06T22:22:26.165Z,10.20
2023-01-06T22:27:29.902Z,10.23
2023-01-06T22:32:34.850Z,10.30
2023-01-06T22:37:40.032Z,10.31
2023-01-06T22:42:43.849Z,10.30
2023-01-06T22:47:47.688Z,10.27
2023-01-06T22:52:52.829Z,10.29
2023-01-06T22:57:56.684Z,10.26
2023-01-06T23:03:00.483Z,10.30
2023-01-06T23:08:06.227Z,10.29
2023-01-06T23:13:09.968Z,10.30
2023-01-06T23:18:13.751Z,10.33
2023-01-06T23:23:18.810Z,10.29
2023-01-06T23:28:22.563Z,10.35
2023-01-06T23:33:26.291Z,10.34
2023-01-06T23:38:32.167Z,10.27
2023-01-06T23:43:37.043Z,10.30
2023-01-06T23:48:41.127Z,10.29
2023-01-06T23:53:47.184Z,10.20
2023-01-06T23:58:54.872Z,10.23
